createdAt,value
2022-08-21T00:00:57.141Z,0.00
2022-08-21T00:05:57.009Z,0.00
2022-08-21T00:10:56.956Z,0.00
2022-08-21T00:15:56.940Z,0.00
2022-08-21T00:20:56.830Z,0.00
2022-08-21T00:25:56.814Z,0.00
2022-08-21T00:30:56.721Z,0.00
2022-08-21T00:35:56.669Z,0.00
2022-08-21T00:40:56.618Z,0.00
2022-08-21T00:45:56.673Z,0.00
2022-08-21T00:50:56.558Z,0.00
2022-08-21T00:55:56.570Z,0.00
2022-08-21T01:00:56.427Z,0.00
2022-08-21T01:05:56.371Z,0.00
2022-08-21T01:10:56.332Z,0.00
2022-08-21T01:15:56.238Z,0.00
2022-08-21T01:20:56.180Z,0.00
2022-08-21T01:25:56.153Z,0.00
2022-08-21T01:30:56.091Z,0.00
2022-08-21T01:35:56.031Z,0.00
2022-08-21T01:40:55.972Z,0.00
2022-08-21T01:45:55.940Z,0.00
2022-08-21T01:50:56.940Z,0.00
2022-08-21T01:55:55.997Z,0.00
2022-08-21T02:00:55.783Z,0.00
2022-08-21T02:05:55.887Z,0.00
2022-08-21T02:10:55.659Z,0.00
2022-08-21T02:15:55.611Z,0.00
2022-08-21T02:20:56.092Z,0.00
2022-08-21T02:25:55.505Z,0.00
2022-08-21T02:30:55.439Z,0.00
2022-08-21T02:35:55.377Z,0.00
2022-08-21T02:40:55.340Z,0.00
2022-08-21T02:45:55.266Z,0.00
2022-08-21T02:50:55.216Z,0.00
2022-08-21T02:55:55.392Z,0.00
2022-08-21T03:00:56.259Z,0.00
2022-08-21T03:05:55.076Z,0.00
2022-08-21T03:10:55.084Z,0.00
2022-08-21T03:15:54.958Z,0.00
2022-08-21T03:20:58.367Z,0.00
2022-08-21T03:25:55.449Z,0.00
2022-08-21T03:30:54.800Z,0.00
2022-08-21T03:35:54.736Z,0.00
2022-08-21T03:40:54.685Z,0.00
2022-08-21T03:45:54.627Z,0.00
2022-08-21T03:50:54.620Z,0.00
2022-08-21T03:55:54.518Z,0.00
2022-08-21T04:00:54.452Z,0.00
2022-08-21T04:05:54.405Z,0.00
2022-08-21T04:10:54.441Z,0.00
2022-08-21T04:15:54.299Z,5.62
2022-08-21T04:20:54.233Z,11.25
2022-08-21T04:25:54.221Z,16.88
2022-08-21T04:30:54.132Z,28.12
2022-08-21T04:35:54.079Z,45.00
2022-08-21T04:40:54.003Z,61.88
2022-08-21T04:45:53.973Z,78.75
2022-08-21T04:50:53.909Z,95.62
2022-08-21T04:55:54.942Z,118.12
2022-08-21T05:00:53.813Z,140.62
2022-08-21T05:05:53.760Z,168.75
2022-08-21T05:10:58.210Z,196.88
2022-08-21T05:15:54.658Z,202.50
2022-08-21T05:20:53.573Z,219.38
2022-08-21T05:25:53.820Z,253.12
2022-08-21T05:30:53.511Z,292.50
2022-08-21T05:35:53.423Z,315.00
2022-08-21T05:40:53.555Z,326.25
2022-08-21T05:45:53.445Z,337.50
2022-08-21T05:51:02.233Z,444.38
2022-08-21T05:55:53.188Z,613.12
2022-08-21T06:00:53.160Z,736.88
2022-08-21T06:05:53.138Z,804.38
2022-08-21T06:10:53.046Z,675.00
2022-08-21T06:15:53.013Z,433.12
2022-08-21T06:20:52.985Z,450.00
2022-08-21T06:25:52.963Z,686.25
2022-08-21T06:30:52.876Z,736.88
2022-08-21T06:35:52.797Z,905.62
2022-08-21T06:40:52.797Z,1029.38
2022-08-21T06:45:52.753Z,2008.12
2022-08-21T06:50:56.067Z,1411.88
2022-08-21T06:55:52.695Z,1828.12
2022-08-21T07:00:52.550Z,2109.38
2022-08-21T07:05:52.514Z,1884.38
2022-08-21T07:10:52.436Z,1293.75
2022-08-21T07:15:52.443Z,1833.75
2022-08-21T07:20:52.443Z,2238.75
2022-08-21T07:25:52.386Z,2396.25
2022-08-21T07:30:52.438Z,2542.50
2022-08-21T07:35:52.172Z,2553.75
2022-08-21T07:40:52.117Z,2660.62
2022-08-21T07:45:52.035Z,2874.38
2022-08-21T07:50:52.089Z,3020.62
2022-08-21T07:55:52.023Z,2604.38
2022-08-21T08:00:52.042Z,2745.00
2022-08-21T08:05:51.989Z,2632.50
2022-08-21T08:10:51.945Z,2908.12
2022-08-21T08:15:52.855Z,2947.50
2022-08-21T08:20:51.730Z,2806.88
2022-08-21T08:25:51.591Z,3037.50
2022-08-21T08:30:51.575Z,3268.12
2022-08-21T08:35:51.533Z,3459.38
2022-08-21T08:40:51.851Z,3391.88
2022-08-21T08:45:52.562Z,3560.62
2022-08-21T08:50:51.755Z,3251.25
2022-08-21T08:55:51.314Z,3746.25
2022-08-21T09:00:51.713Z,4117.50
2022-08-21T09:05:51.620Z,2773.12
2022-08-21T09:10:51.135Z,3448.12
2022-08-21T09:15:51.297Z,3560.62
2022-08-21T09:20:51.218Z,3110.62
2022-08-21T09:25:51.283Z,3268.12
2022-08-21T09:30:51.079Z,3695.62
2022-08-21T09:35:51.035Z,4685.62
2022-08-21T09:40:51.136Z,3841.88
2022-08-21T09:45:51.819Z,4500.00
2022-08-21T09:50:50.800Z,4297.50
2022-08-21T09:55:50.751Z,4522.50
2022-08-21T10:00:50.835Z,4696.88
2022-08-21T10:05:50.749Z,3453.75
2022-08-21T10:10:50.811Z,4708.12
2022-08-21T10:15:51.769Z,4792.50
2022-08-21T10:20:50.560Z,4432.50
2022-08-21T10:25:57.229Z,4263.75
2022-08-21T10:30:51.361Z,4466.25
2022-08-21T10:35:50.303Z,3628.12
2022-08-21T10:40:50.250Z,4421.25
2022-08-21T10:45:50.350Z,4651.88
2022-08-21T10:50:50.297Z,4500.00
2022-08-21T10:55:50.104Z,4646.25
2022-08-21T11:00:50.127Z,4438.12
2022-08-21T11:05:50.950Z,4066.88
2022-08-21T11:10:57.680Z,4263.75
2022-08-21T11:15:50.935Z,4786.88
2022-08-21T11:20:49.863Z,3735.00
2022-08-21T11:25:49.974Z,3622.50
2022-08-21T11:30:49.806Z,2970.00
2022-08-21T11:35:49.943Z,2829.38
2022-08-21T11:40:49.664Z,3616.88
2022-08-21T11:45:49.735Z,4533.75
2022-08-21T11:50:49.586Z,4978.12
2022-08-21T11:55:49.537Z,4533.75
2022-08-21T12:00:58.353Z,4528.12
2022-08-21T12:05:49.420Z,4066.88
2022-08-21T12:10:49.733Z,4230.00
2022-08-21T12:15:49.454Z,5236.88
2022-08-21T12:20:50.428Z,4398.75
2022-08-21T12:25:49.224Z,5236.88
2022-08-21T12:30:49.206Z,4432.50
2022-08-21T12:35:49.165Z,5073.75
2022-08-21T12:40:49.215Z,5394.38
2022-08-21T12:45:49.129Z,3211.88
2022-08-21T12:50:49.110Z,3144.38
2022-08-21T12:55:49.031Z,3808.12
2022-08-21T13:00:48.948Z,3408.75
2022-08-21T13:05:48.882Z,3881.25
2022-08-21T13:10:48.821Z,5006.25
2022-08-21T13:15:48.786Z,4854.38
2022-08-21T13:20:48.783Z,1023.75
2022-08-21T13:25:48.768Z,2677.50
2022-08-21T13:30:48.661Z,3515.62
2022-08-21T13:35:48.698Z,3161.25
2022-08-21T13:40:48.607Z,2441.25
2022-08-21T13:45:48.550Z,1923.75
2022-08-21T13:50:48.440Z,2351.25
2022-08-21T13:55:48.395Z,2604.38
2022-08-21T14:00:48.379Z,2722.50
2022-08-21T14:05:48.399Z,2666.25
2022-08-21T14:10:48.336Z,2525.62
2022-08-21T14:15:49.225Z,1873.12
2022-08-21T14:20:48.250Z,1743.75
2022-08-21T14:25:48.218Z,1288.12
2022-08-21T14:30:48.073Z,1344.38
2022-08-21T14:35:48.023Z,1417.50
2022-08-21T14:40:47.964Z,1473.75
2022-08-21T14:45:47.918Z,1974.38
2022-08-21T14:50:47.884Z,1631.25
2022-08-21T14:55:47.939Z,1636.88
2022-08-21T15:00:47.870Z,1642.50
2022-08-21T15:05:47.722Z,1327.50
2022-08-21T15:11:10.549Z,1265.62
2022-08-21T15:15:48.621Z,1254.38
2022-08-21T15:20:47.533Z,1153.12
2022-08-21T15:25:47.514Z,1068.75
2022-08-21T15:30:47.567Z,1046.25
2022-08-21T15:35:47.486Z,855.00
2022-08-21T15:40:51.750Z,691.88
2022-08-21T15:45:48.286Z,624.38
2022-08-21T15:50:47.228Z,613.12
2022-08-21T15:55:47.212Z,669.38
2022-08-21T16:00:47.247Z,765.00
2022-08-21T16:05:47.113Z,838.12
2022-08-21T16:10:47.148Z,804.38
2022-08-21T16:15:47.064Z,708.75
2022-08-21T16:20:46.994Z,607.50
2022-08-21T16:25:46.956Z,478.12
2022-08-21T16:30:46.827Z,399.38
2022-08-21T16:35:47.612Z,382.50
2022-08-21T16:40:46.718Z,399.38
2022-08-21T16:45:46.719Z,405.00
2022-08-21T16:50:50.829Z,416.25
2022-08-21T16:55:46.558Z,421.88
2022-08-21T17:00:46.510Z,427.50
2022-08-21T17:05:46.578Z,410.62
2022-08-21T17:10:46.385Z,388.12
2022-08-21T17:15:46.350Z,360.00
2022-08-21T17:20:46.424Z,343.12
2022-08-21T17:25:46.324Z,331.88
2022-08-21T17:30:46.378Z,309.38
2022-08-21T17:35:46.217Z,292.50
2022-08-21T17:40:46.078Z,281.25
2022-08-21T17:45:46.034Z,253.12
2022-08-21T17:50:45.998Z,219.38
2022-08-21T17:55:46.080Z,185.62
2022-08-21T18:01:48.456Z,157.50
2022-08-21T18:06:48.385Z,140.62
2022-08-21T18:11:48.328Z,112.50
2022-08-21T18:16:48.289Z,90.00
2022-08-21T18:21:48.355Z,61.88
2022-08-21T18:26:48.165Z,45.00
2022-08-21T18:31:48.095Z,33.75
2022-08-21T18:36:48.087Z,22.50
2022-08-21T18:41:48.210Z,11.25
2022-08-21T18:46:47.947Z,5.62
2022-08-21T18:51:47.927Z,5.62
2022-08-21T18:56:47.829Z,0.00
2022-08-21T19:01:48.121Z,0.00
2022-08-21T19:06:47.730Z,0.00
2022-08-21T19:11:47.675Z,0.00
2022-08-21T19:16:47.619Z,0.00
2022-08-21T19:21:49.438Z,0.00
2022-08-21T19:26:47.599Z,0.00
2022-08-21T19:31:47.441Z,0.00
2022-08-21T19:36:47.428Z,0.00
2022-08-21T19:41:48.909Z,0.00
2022-08-21T19:46:47.441Z,0.00
2022-08-21T19:51:47.241Z,0.00
2022-08-21T19:56:47.196Z,0.00
2022-08-21T20:01:47.195Z,0.00
2022-08-21T20:06:47.177Z,0.00
2022-08-21T20:11:47.014Z,0.00
2022-08-21T20:16:46.977Z,0.00
2022-08-21T20:21:46.905Z,0.00
2022-08-21T20:31:47.807Z,0.00
2022-08-21T20:46:47.627Z,0.00
2022-08-21T20:51:46.575Z,0.00
2022-08-21T20:56:46.628Z,0.00
2022-08-21T21:01:46.492Z,0.00
2022-08-21T21:06:49.950Z,0.00
2022-08-21T21:11:46.373Z,0.00
2022-08-21T21:21:51.244Z,0.00
2022-08-21T21:31:47.159Z,0.00
2022-08-21T21:36:56.073Z,0.00
2022-08-21T21:41:47.117Z,0.00
2022-08-21T21:46:48.530Z,0.00
2022-08-21T21:51:45.930Z,0.00
2022-08-21T21:56:45.888Z,0.00
2022-08-21T22:01:45.815Z,0.00
2022-08-21T22:06:48.570Z,0.00
2022-08-21T22:11:46.718Z,0.00
2022-08-21T22:16:45.756Z,0.00
2022-08-21T22:21:45.698Z,0.00
2022-08-21T22:26:45.602Z,0.00
2022-08-21T22:31:45.477Z,0.00
2022-08-21T22:36:45.529Z,0.00
2022-08-21T22:41:46.396Z,0.00
2022-08-21T22:46:45.307Z,0.00
2022-08-21T22:51:45.278Z,0.00
2022-08-21T22:56:45.219Z,0.00
2022-08-21T23:01:45.172Z,0.00
2022-08-21T23:06:45.098Z,0.00
2022-08-21T23:11:45.037Z,0.00
2022-08-21T23:16:47.408Z,0.00
2022-08-21T23:21:44.907Z,0.00
2022-08-21T23:26:46.886Z,0.00
2022-08-21T23:31:45.831Z,0.00
2022-08-21T23:36:44.747Z,0.00
2022-08-21T23:41:44.697Z,0.00
2022-08-21T23:46:44.648Z,0.00
2022-08-21T23:51:44.616Z,0.00
2022-08-21T23:56:44.541Z,0.00
